createdAt,value
2018-04-20T00:00:14.519Z,5.37
2018-04-20T00:05:17.216Z,4.53
2018-04-20T00:10:20.144Z,4.57
2018-04-20T00:15:23.811Z,5.47
2018-04-20T00:20:27.198Z,5.07
2018-04-20T00:25:30.471Z,4.00
2018-04-20T00:30:33.519Z,4.60
2018-04-20T00:35:36.915Z,4.57
2018-04-20T00:40:39.763Z,4.30
2018-04-20T00:45:42.924Z,4.40
2018-04-20T00:50:45.562Z,4.30
2018-04-20T00:55:49.425Z,4.73
2018-04-20T01:00:52.137Z,5.30
2018-04-20T01:05:56.792Z,4.60
2018-04-20T01:10:59.992Z,3.77
2018-04-20T01:16:06.595Z,4.63
2018-04-20T01:21:09.371Z,4.00
2018-04-20T01:26:12.703Z,4.80
2018-04-20T01:31:15.626Z,3.97
2018-04-20T01:36:20.085Z,4.40
2018-04-20T01:41:23.106Z,4.93
2018-04-20T01:46:25.927Z,4.90
2018-04-20T01:51:28.900Z,4.63
2018-04-20T01:56:31.765Z,4.30
2018-04-20T02:01:36.259Z,4.70
2018-04-20T02:06:39.084Z,4.63
2018-04-20T02:11:44.218Z,4.87
2018-04-20T02:16:48.459Z,5.43
2018-04-20T02:21:51.980Z,5.47
2018-04-20T02:26:54.723Z,4.83
2018-04-20T02:32:00.865Z,5.00
2018-04-20T02:37:03.782Z,7.70
2018-04-20T02:42:08.252Z,6.37
2018-04-20T02:47:11.809Z,4.93
2018-04-20T02:52:15.317Z,5.90
2018-04-20T02:57:18.072Z,4.80
2018-04-20T03:02:21.130Z,4.10
2018-04-20T03:07:24.049Z,4.60
2018-04-20T03:12:27.777Z,5.30
2018-04-20T03:17:30.700Z,4.30
2018-04-20T03:22:33.469Z,4.73
2018-04-20T03:27:36.293Z,4.30
2018-04-20T03:32:41.583Z,5.20
2018-04-20T03:37:45.297Z,4.30
2018-04-20T03:42:48.534Z,4.53
2018-04-20T03:47:51.382Z,5.13
2018-04-20T03:52:54.295Z,4.80
2018-04-20T03:57:58.470Z,4.80
2018-04-20T04:03:02.821Z,4.33
2018-04-20T04:08:05.616Z,5.00
2018-04-20T04:13:08.981Z,4.90
2018-04-20T04:18:24.038Z,4.50
2018-04-20T04:23:38.720Z,5.13
2018-04-20T04:28:42.924Z,5.30
2018-04-20T04:33:45.683Z,4.20
2018-04-20T04:38:48.754Z,4.27
2018-04-20T04:43:51.706Z,4.60
2018-04-20T04:48:55.542Z,4.17
2018-04-20T04:53:58.604Z,5.17
2018-04-20T04:59:01.185Z,4.63
2018-04-20T05:04:03.933Z,3.97
2018-04-20T05:09:06.467Z,4.73
2018-04-20T05:14:09.097Z,5.60
2018-04-20T05:19:11.650Z,5.27
2018-04-20T05:24:14.200Z,5.43
2018-04-20T05:29:16.754Z,5.23
2018-04-20T05:34:19.440Z,5.83
2018-04-20T05:39:21.974Z,6.00
2018-04-20T05:44:24.496Z,6.30
2018-04-20T05:49:27.084Z,7.40
2018-04-20T05:54:29.677Z,6.60
2018-04-20T05:59:32.227Z,6.50
2018-04-20T06:04:35.582Z,5.50
2018-04-20T06:09:38.110Z,5.20
2018-04-20T06:14:40.655Z,5.87
2018-04-20T06:19:43.229Z,5.77
2018-04-20T06:24:45.770Z,5.00
2018-04-20T06:29:48.363Z,5.63
2018-04-20T06:34:50.981Z,6.03
2018-04-20T06:39:53.505Z,5.50
2018-04-20T06:44:56.061Z,5.90
2018-04-20T06:49:58.619Z,6.20
2018-04-20T06:55:01.162Z,5.57
2018-04-20T07:00:03.692Z,5.57
2018-04-20T07:05:06.263Z,5.97
2018-04-20T07:10:08.799Z,6.00
2018-04-20T07:15:11.326Z,5.70
2018-04-20T07:20:13.863Z,6.70
2018-04-20T07:25:16.398Z,6.83
2018-04-20T07:30:18.920Z,5.50
2018-04-20T07:35:21.456Z,6.73
2018-04-20T07:40:23.991Z,6.20
2018-04-20T07:45:26.507Z,6.93
2018-04-20T07:50:29.042Z,6.40
2018-04-20T07:55:31.568Z,6.27
2018-04-20T08:00:34.087Z,6.83
2018-04-20T08:05:36.607Z,5.83
2018-04-20T08:10:39.137Z,6.00
2018-04-20T08:15:41.673Z,6.37
2018-04-20T08:20:44.212Z,6.57
2018-04-20T08:25:46.755Z,6.20
2018-04-20T08:30:49.293Z,6.53
2018-04-20T08:35:51.825Z,5.50
2018-04-20T08:40:54.366Z,5.37
2018-04-20T08:45:56.894Z,4.33
2018-04-20T08:50:59.430Z,4.87
2018-04-20T08:56:01.972Z,4.43
2018-04-20T09:01:04.493Z,5.17
2018-04-20T09:06:07.035Z,3.87
2018-04-20T09:11:09.613Z,3.43
2018-04-20T09:16:12.158Z,4.73
2018-04-20T09:21:14.737Z,4.10
2018-04-20T09:26:17.257Z,4.43
2018-04-20T09:31:19.785Z,4.23
2018-04-20T09:36:22.311Z,4.10
2018-04-20T09:41:24.853Z,4.57
2018-04-20T09:46:27.425Z,2.63
2018-04-20T09:51:29.961Z,3.57
2018-04-20T09:56:32.481Z,3.70
2018-04-20T10:01:35.005Z,2.80
2018-04-20T10:06:37.549Z,3.10
2018-04-20T10:11:40.065Z,3.40
2018-04-20T10:16:42.602Z,3.80
2018-04-20T10:21:45.125Z,2.80
2018-04-20T10:26:47.650Z,3.10
2018-04-20T10:31:50.164Z,3.47
2018-04-20T10:36:52.700Z,3.63
2018-04-20T10:41:55.217Z,3.80
2018-04-20T10:46:57.749Z,2.50
2018-04-20T10:52:00.277Z,3.07
2018-04-20T10:57:02.798Z,2.50
2018-04-20T11:02:05.321Z,2.40
2018-04-20T11:07:07.841Z,2.43
2018-04-20T11:12:10.364Z,2.60
2018-04-20T11:17:12.937Z,2.43
2018-04-20T11:22:15.459Z,2.60
2018-04-20T11:27:17.978Z,2.53
2018-04-20T11:32:20.497Z,2.57
2018-04-20T11:37:23.032Z,2.70
2018-04-20T11:42:25.548Z,2.80
2018-04-20T11:47:28.082Z,1.90
2018-04-20T11:52:30.601Z,1.93
2018-04-20T11:57:33.129Z,2.00
2018-04-20T12:02:35.657Z,1.77
2018-04-20T12:07:38.194Z,1.83
2018-04-20T12:12:40.721Z,2.00
2018-04-20T12:17:43.371Z,1.60
2018-04-20T12:22:45.907Z,1.60
2018-04-20T12:27:48.456Z,1.37
2018-04-20T12:32:51.067Z,2.47
2018-04-20T12:37:53.593Z,1.77
2018-04-20T12:42:56.907Z,1.40
2018-04-20T12:47:59.448Z,1.60
2018-04-20T12:53:01.974Z,1.80
2018-04-20T12:58:04.510Z,1.77
2018-04-20T13:03:07.049Z,1.63
2018-04-20T13:08:09.571Z,1.33
2018-04-20T13:13:12.120Z,1.60
2018-04-20T13:18:14.657Z,1.60
2018-04-20T13:23:17.198Z,2.40
2018-04-20T13:28:20.502Z,1.93
2018-04-20T13:33:23.019Z,2.17
2018-04-20T13:38:25.573Z,1.70
2018-04-20T13:43:28.645Z,1.30
2018-04-20T13:48:31.175Z,1.70
2018-04-20T13:53:33.705Z,1.40
2018-04-20T13:58:36.230Z,1.33
2018-04-20T14:03:38.813Z,1.57
2018-04-20T14:08:41.334Z,1.63
2018-04-20T14:13:43.874Z,2.00
2018-04-20T14:18:46.420Z,2.83
2018-04-20T14:23:48.937Z,1.70
2018-04-20T14:28:51.469Z,1.73
2018-04-20T14:33:54.002Z,2.57
2018-04-20T14:38:56.521Z,4.57
2018-04-20T14:43:59.092Z,2.90
2018-04-20T14:49:01.583Z,9.70
2018-04-20T14:54:04.171Z,1.83
2018-04-20T14:59:06.724Z,1.57
2018-04-20T15:04:09.272Z,2.10
2018-04-20T15:09:11.802Z,1.30
2018-04-20T15:14:14.333Z,1.40
2018-04-20T15:19:16.885Z,1.37
2018-04-20T15:24:19.418Z,1.30
2018-04-20T15:29:21.945Z,1.47
2018-04-20T15:34:24.479Z,1.60
2018-04-20T15:39:26.998Z,2.17
2018-04-20T15:44:29.521Z,1.50
2018-04-20T15:49:32.044Z,1.50
2018-04-20T15:54:34.582Z,1.60
2018-04-20T15:59:37.117Z,1.10
2018-04-20T16:04:39.693Z,1.60
2018-04-20T16:09:42.222Z,1.73
2018-04-20T16:14:44.745Z,1.17
2018-04-20T16:19:47.266Z,1.73
2018-04-20T16:36:52.601Z,1.93
2018-04-20T17:11:52.352Z,1.90
2018-04-20T17:29:30.525Z,1.80
2018-04-20T18:34:44.098Z,2.00
2018-04-20T18:39:48.553Z,2.87
2018-04-20T18:50:01.391Z,1.83
2018-04-20T18:55:05.584Z,1.90
2018-04-20T19:00:08.964Z,5.03
2018-04-20T19:05:12.416Z,1.63
2018-04-20T19:10:15.159Z,1.37
2018-04-20T19:15:19.562Z,2.37
2018-04-20T19:25:30.659Z,2.50
2018-04-20T19:30:33.467Z,3.73
2018-04-20T19:35:37.981Z,2.73
2018-04-20T19:40:42.285Z,1.87
2018-04-20T19:45:45.712Z,2.20
2018-04-20T19:50:51.774Z,2.00
2018-04-20T19:55:54.697Z,2.77
2018-04-20T20:06:05.045Z,2.17
2018-04-20T20:11:11.052Z,2.43
2018-04-20T20:16:14.329Z,2.00
2018-04-20T20:21:17.771Z,2.37
2018-04-20T20:26:21.254Z,2.57
2018-04-20T20:31:24.747Z,2.80
2018-04-20T20:36:27.702Z,3.17
2018-04-20T20:41:31.098Z,2.63
2018-04-20T20:46:35.377Z,2.90
2018-04-20T20:51:41.219Z,2.50
2018-04-20T20:56:44.685Z,2.23
2018-04-20T21:01:48.274Z,2.40
2018-04-20T21:06:50.817Z,1.80
2018-04-20T21:11:54.273Z,2.47
2018-04-20T21:16:58.865Z,2.00
2018-04-20T21:22:05.099Z,2.03
2018-04-20T21:27:08.034Z,2.30
2018-04-20T21:32:10.726Z,2.23
2018-04-20T21:37:14.494Z,2.43
2018-04-20T21:42:17.725Z,2.33
2018-04-20T21:47:20.526Z,2.40
2018-04-20T21:52:24.098Z,2.43
2018-04-20T21:57:28.395Z,3.03
2018-04-20T22:02:31.705Z,3.03
2018-04-20T22:07:35.900Z,2.87
2018-04-20T22:12:38.643Z,2.30
2018-04-20T22:17:42.223Z,2.60
2018-04-20T22:22:44.957Z,3.10
2018-04-20T22:27:48.002Z,3.10
2018-04-20T22:32:52.140Z,3.37
2018-04-20T22:37:55.074Z,2.53
2018-04-20T22:42:57.791Z,3.30
2018-04-20T22:48:01.328Z,2.50
2018-04-20T22:53:04.067Z,2.67
2018-04-20T22:58:07.373Z,3.10
2018-04-20T23:03:11.336Z,2.63
2018-04-20T23:08:14.780Z,3.17
2018-04-20T23:13:19.019Z,2.03
2018-04-20T23:18:22.306Z,2.73
2018-04-20T23:23:25.289Z,2.70
2018-04-20T23:28:28.750Z,2.70
2018-04-20T23:33:31.570Z,3.10
2018-04-20T23:38:34.546Z,3.40
2018-04-20T23:43:37.779Z,3.13
2018-04-20T23:48:40.727Z,2.80
2018-04-20T23:53:44.058Z,2.90
2018-04-20T23:58:47.721Z,3.37
